BIRK/RKV METAR and TAF weather

Enter ICAO airport designator
Station Type Date Time Source
BIRK METAR 2019/02/23 02:00 UTC NOAA

BIRK 230200Z 11014KT 070V140 9999 BKN017 BKN027 08/03 Q0986


Station Type Date Time Source
BIRK Decoded METAR 2019/02/23 02:00 UTC NOAA

Reykjavik, Iceland (BIRK) 64-08N 021-54W 61M
Feb 22, 2019 - 09:00 PM EST / 2019.02.23 0200 UTC
Wind: from the ESE (110 degrees) at 16 MPH (14 KT) (direction variable):0
Visibility: greater than 7 mile(s):0
Sky conditions: mostly cloudy
Temperature: 46 F (8 C)
Dew Point: 37 F (3 C)
Relative Humidity: 70%
Pressure (altimeter): 29.12 in. Hg (0986 hPa)
ob: BIRK 230200Z 11014KT 070V140 9999 BKN017 BKN027 08/03 Q0986
cycle: 2

Station Type Date Time Source
BIRK TAF 2019/02/23 03:03 UTC NOAA

TAF BIRK 230101Z 2303/2403 14020KT 9999 SCT020 BKN030 TX08/2303Z TN02/2403Z
TEMPO 2303/2312 5000 RADZ BR BKN010 OVC015
BECMG 2303/2305 09008KT
BECMG 2310/2312 20013KT
BECMG 2313/2315 22025G35KT SHRA
TEMPO 2314/2321 5000 SHRA BKN015CB


Example: see airport list